sensor_id;sensor_type;location;lat;lon;timestamp;pressure;altitude;pressure_sealevel;temperature;humidity
50250;BME280;36133;42.522;27.456;2022-10-31T00:00:25;101417.50;;;16.54;56.21
50250;BME280;36133;42.522;27.456;2022-10-31T00:02:50;101081.03;;;15.00;54.83
50250;BME280;36133;42.522;27.456;2022-10-31T00:05:16;101394.44;;;16.63;55.46
50250;BME280;36133;42.522;27.456;2022-10-31T00:07:41;101182.38;;;15.41;54.97
50250;BME280;36133;42.522;27.456;2022-10-31T00:10:07;101520.56;;;17.90;54.39
50250;BME280;36133;42.522;27.456;2022-10-31T00:12:33;101402.84;;;16.68;55.03
50250;BME280;36133;42.522;27.456;2022-10-31T00:14:59;101421.28;;;16.93;55.71
50250;BME280;36133;42.522;27.456;2022-10-31T00:17:24;101516.53;;;17.14;56.35
50250;BME280;36133;42.522;27.456;2022-10-31T00:19:50;101301.97;;;15.63;57.08
50250;BME280;36133;42.522;27.456;2022-10-31T00:22:15;101339.94;;;16.24;57.13
50250;BME280;36133;42.522;27.456;2022-10-31T00:24:41;101558.06;;;17.43;56.56
50250;BME280;36133;42.522;27.456;2022-10-31T00:27:06;101157.88;;;14.54;55.72
50250;BME280;36133;42.522;27.456;2022-10-31T00:29:32;101244.88;;;15.15;55.03
50250;BME280;36133;42.522;27.456;2022-10-31T00:32:02;101261.66;;;14.77;55.86
50250;BME280;36133;42.522;27.456;2022-10-31T00:37:51;101378.09;;;16.30;52.83
50250;BME280;36133;42.522;27.456;2022-10-31T00:40:17;101388.13;;;16.56;51.85
50250;BME280;36133;42.522;27.456;2022-10-31T00:42:43;101415.03;;;17.50;49.69
50250;BME280;36133;42.522;27.456;2022-10-31T00:45:09;101423.88;;;17.46;49.47
50250;BME280;36133;42.522;27.456;2022-10-31T00:47:35;101394.56;;;17.21;48.64
50250;BME280;36133;42.522;27.456;2022-10-31T00:50:01;101555.72;;;18.69;47.40
50250;BME280;36133;42.522;27.456;2022-10-31T00:52:27;101394.94;;;17.32;47.71
50250;BME280;36133;42.522;27.456;2022-10-31T00:54:52;101568.22;;;18.07;47.84
50250;BME280;36133;42.522;27.456;2022-10-31T00:57:18;101288.72;;;16.65;47.72
50250;BME280;36133;42.522;27.456;2022-10-31T00:59:44;101310.09;;;16.82;48.38
50250;BME280;36133;42.522;27.456;2022-10-31T01:02:09;101212.78;;;15.78;48.72
50250;BME280;36133;42.522;27.456;2022-10-31T01:04:35;101188.25;;;15.91;48.17
50250;BME280;36133;42.522;27.456;2022-10-31T01:07:00;101174.44;;;15.79;47.58
50250;BME280;36133;42.522;27.456;2022-10-31T01:09:26;101293.63;;;16.17;48.46
50250;BME280;36133;42.522;27.456;2022-10-31T01:11:51;101062.13;;;14.45;49.40
50250;BME280;36133;42.522;27.456;2022-10-31T01:14:17;101395.88;;;16.46;49.67
50250;BME280;36133;42.522;27.456;2022-10-31T01:16:42;101237.34;;;15.23;49.79
50250;BME280;36133;42.522;27.456;2022-10-31T01:19:08;101567.69;;;17.52;49.69
50250;BME280;36133;42.522;27.456;2022-10-31T01:21:33;101189.91;;;15.46;49.27
50250;BME280;36133;42.522;27.456;2022-10-31T01:23:59;101246.06;;;15.87;49.00
50250;BME280;36133;42.522;27.456;2022-10-31T01:26:30;101154.72;;;15.44;48.57
50250;BME280;36133;42.522;27.456;2022-10-31T01:28:58;101407.84;;;16.91;48.58
50250;BME280;36133;42.522;27.456;2022-10-31T01:31:26;101297.91;;;15.39;50.15
50250;BME280;36133;42.522;27.456;2022-10-31T01:37:17;101255.56;;;15.16;50.09
50250;BME280;36133;42.522;27.456;2022-10-31T01:39:42;101533.34;;;16.98;50.24
50250;BME280;36133;42.522;27.456;2022-10-31T01:42:17;101255.38;;;15.38;50.05
50250;BME280;36133;42.522;27.456;2022-10-31T01:48:13;101376.78;;;16.06;50.77
50250;BME280;36133;42.522;27.456;2022-10-31T01:50:41;101351.84;;;15.96;50.67
50250;BME280;36133;42.522;27.456;2022-10-31T01:53:08;101330.06;;;15.90;51.34
50250;BME280;36133;42.522;27.456;2022-10-31T01:55:39;101388.88;;;15.71;52.68
50250;BME280;36133;42.522;27.456;2022-10-31T01:58:14;101371.31;;;15.87;52.86
50250;BME280;36133;42.522;27.456;2022-10-31T02:01:16;101177.06;;;15.13;51.97
50250;BME280;36133;42.522;27.456;2022-10-31T02:03:43;101178.19;;;14.64;53.26
50250;BME280;36133;42.522;27.456;2022-10-31T02:06:26;101401.09;;;15.88;52.86
50250;BME280;36133;42.522;27.456;2022-10-31T02:12:34;101341.59;;;16.78;47.90
50250;BME280;36133;42.522;27.456;2022-10-31T02:15:03;101348.41;;;17.07;47.01
50250;BME280;36133;42.522;27.456;2022-10-31T02:17:29;101589.88;;;18.02;47.16
50250;BME280;36133;42.522;27.456;2022-10-31T02:31:04;101510.97;;;17.74;46.30
50250;BME280;36133;42.522;27.456;2022-10-31T02:36:15;101581.09;;;18.44;45.49
50250;BME280;36133;42.522;27.456;2022-10-31T02:39:06;101552.56;;;17.56;46.92
50250;BME280;36133;42.522;27.456;2022-10-31T02:41:55;101545.47;;;16.95;48.26
50250;BME280;36133;42.522;27.456;2022-10-31T02:44:28;101593.75;;;17.48;47.64
50250;BME280;36133;42.522;27.456;2022-10-31T02:47:00;101552.16;;;17.52;46.76
50250;BME280;36133;42.522;27.456;2022-10-31T02:49:57;101576.94;;;17.57;47.45
50250;BME280;36133;42.522;27.456;2022-10-31T02:52:27;101584.91;;;17.66;47.37
50250;BME280;36133;42.522;27.456;2022-10-31T02:54:53;101582.22;;;17.33;47.79
50250;BME280;36133;42.522;27.456;2022-10-31T02:57:29;101596.69;;;17.60;47.42
50250;BME280;36133;42.522;27.456;2022-10-31T03:00:02;101500.97;;;17.28;47.15
50250;BME280;36133;42.522;27.456;2022-10-31T03:05:26;101594.94;;;17.92;47.60
50250;BME280;36133;42.522;27.456;2022-10-31T03:10:54;101555.84;;;17.98;47.08
50250;BME280;36133;42.522;27.456;2022-10-31T03:16:45;101455.69;;;16.81;49.12
50250;BME280;36133;42.522;27.456;2022-10-31T03:25:09;101562.56;;;18.02;49.29
50250;BME280;36133;42.522;27.456;2022-10-31T03:27:38;101498.38;;;17.53;50.20
50250;BME280;36133;42.522;27.456;2022-10-31T03:30:05;101592.16;;;18.56;49.20
50250;BME280;36133;42.522;27.456;2022-10-31T03:32:50;101597.88;;;18.48;49.43
50250;BME280;36133;42.522;27.456;2022-10-31T03:35:19;101590.63;;;17.24;51.89
50250;BME280;36133;42.522;27.456;2022-10-31T03:37:47;101451.06;;;16.94;50.91
50250;BME280;36133;42.522;27.456;2022-10-31T03:40:15;101583.41;;;17.90;50.98
50250;BME280;36133;42.522;27.456;2022-10-31T03:42:46;101444.41;;;17.55;49.53
50250;BME280;36133;42.522;27.456;2022-10-31T03:45:21;101499.38;;;18.23;48.86
50250;BME280;36133;42.522;27.456;2022-10-31T03:47:48;101620.38;;;18.50;49.67
50250;BME280;36133;42.522;27.456;2022-10-31T03:50:15;101564.47;;;18.39;49.17
50250;BME280;36133;42.522;27.456;2022-10-31T03:53:08;101620.28;;;19.01;48.32
50250;BME280;36133;42.522;27.456;2022-10-31T03:56:01;101551.03;;;18.76;47.99
50250;BME280;36133;42.522;27.456;2022-10-31T03:58:32;101628.34;;;19.28;47.12
50250;BME280;36133;42.522;27.456;2022-10-31T04:01:00;101559.03;;;17.95;49.05
50250;BME280;36133;42.522;27.456;2022-10-31T04:03:30;101625.00;;;18.50;49.44
50250;BME280;36133;42.522;27.456;2022-10-31T04:06:00;101626.63;;;19.02;48.82
50250;BME280;36133;42.522;27.456;2022-10-31T04:08:30;101618.94;;;19.42;47.43
50250;BME280;36133;42.522;27.456;2022-10-31T04:10:57;101529.59;;;18.98;47.60
50250;BME280;36133;42.522;27.456;2022-10-31T04:13:30;101623.47;;;19.30;48.05
50250;BME280;36133;42.522;27.456;2022-10-31T04:15:57;101612.91;;;18.32;49.70
50250;BME280;36133;42.522;27.456;2022-10-31T04:18:23;101163.94;;;15.57;49.98
50250;BME280;36133;42.522;27.456;2022-10-31T04:20:49;101649.91;;;18.28;50.40
50250;BME280;36133;42.522;27.456;2022-10-31T04:23:25;101333.00;;;17.32;47.75
50250;BME280;36133;42.522;27.456;2022-10-31T04:25:51;101634.47;;;18.54;48.59
50250;BME280;36133;42.522;27.456;2022-10-31T04:28:18;101394.31;;;17.29;48.28
50250;BME280;36133;42.522;27.456;2022-10-31T04:30:43;101388.34;;;16.35;49.65
50250;BME280;36133;42.522;27.456;2022-10-31T04:33:09;101581.06;;;18.06;48.76
50250;BME280;36133;42.522;27.456;2022-10-31T04:35:34;101659.94;;;18.41;49.23
50250;BME280;36133;42.522;27.456;2022-10-31T04:38:00;101662.03;;;17.81;50.67
50250;BME280;36133;42.522;27.456;2022-10-31T04:40:25;101440.81;;;16.77;49.47
50250;BME280;36133;42.522;27.456;2022-10-31T04:42:51;101588.19;;;18.90;46.85
50250;BME280;36133;42.522;27.456;2022-10-31T04:45:17;101465.34;;;18.82;45.51
50250;BME280;36133;42.522;27.456;2022-10-31T04:47:42;101571.78;;;19.40;45.81
50250;BME280;36133;42.522;27.456;2022-10-31T04:50:08;101540.72;;;19.71;44.96
50250;BME280;36133;42.522;27.456;2022-10-31T04:52:41;101616.75;;;20.31;44.78
50250;BME280;36133;42.522;27.456;2022-10-31T04:55:08;101648.44;;;20.45;44.48
50250;BME280;36133;42.522;27.456;2022-10-31T04:57:48;101655.41;;;20.77;43.98
50250;BME280;36133;42.522;27.456;2022-10-31T05:00:15;101497.88;;;19.77;43.88
50250;BME280;36133;42.522;27.456;2022-10-31T05:02:52;101613.09;;;20.55;43.53
50250;BME280;36133;42.522;27.456;2022-10-31T05:05:21;101619.94;;;20.64;43.44
50250;BME280;36133;42.522;27.456;2022-10-31T05:07:48;101647.22;;;20.59;44.09
50250;BME280;36133;42.522;27.456;2022-10-31T05:10:19;101681.53;;;20.50;44.36
50250;BME280;36133;42.522;27.456;2022-10-31T05:12:56;101699.09;;;20.06;45.23
50250;BME280;36133;42.522;27.456;2022-10-31T05:15:23;101678.88;;;19.25;46.74
50250;BME280;36133;42.522;27.456;2022-10-31T05:17:50;101502.00;;;18.05;47.49
50250;BME280;36133;42.522;27.456;2022-10-31T05:20:17;101679.38;;;19.16;47.39
50250;BME280;36133;42.522;27.456;2022-10-31T05:22:47;101451.66;;;18.51;45.42
50250;BME280;36133;42.522;27.456;2022-10-31T05:25:13;101520.41;;;19.79;44.01
50250;BME280;36133;42.522;27.456;2022-10-31T05:27:44;101324.69;;;18.22;44.41
50250;BME280;36133;42.522;27.456;2022-10-31T05:30:12;101431.69;;;18.50;44.88
50250;BME280;36133;42.522;27.456;2022-10-31T05:32:42;101485.34;;;17.75;47.32
50250;BME280;36133;42.522;27.456;2022-10-31T05:35:10;101487.38;;;16.82;50.05
50250;BME280;36133;42.522;27.456;2022-10-31T05:37:36;101316.44;;;16.23;49.26
50250;BME280;36133;42.522;27.456;2022-10-31T05:40:07;101584.72;;;17.41;50.64
50250;BME280;36133;42.522;27.456;2022-10-31T05:42:33;101262.34;;;15.53;51.09
50250;BME280;36133;42.522;27.456;2022-10-31T05:44:59;101479.19;;;16.88;50.77
50250;BME280;36133;42.522;27.456;2022-10-31T05:47:24;101676.03;;;18.11;50.61
50250;BME280;36133;42.522;27.456;2022-10-31T05:49:50;101346.56;;;15.68;52.44
50250;BME280;36133;42.522;27.456;2022-10-31T05:52:18;101594.56;;;16.76;52.54
50250;BME280;36133;42.522;27.456;2022-10-31T05:54:43;101612.66;;;17.82;49.48
50250;BME280;36133;42.522;27.456;2022-10-31T05:57:09;101694.13;;;18.12;49.27
50250;BME280;36133;42.522;27.456;2022-10-31T05:59:35;101503.25;;;17.38;48.24
50250;BME280;36133;42.522;27.456;2022-10-31T06:02:01;101742.03;;;19.30;46.86
50250;BME280;36133;42.522;27.456;2022-10-31T06:04:27;101611.44;;;18.74;45.11
50250;BME280;36133;42.522;27.456;2022-10-31T06:06:52;101617.75;;;19.07;45.01
50250;BME280;36133;42.522;27.456;2022-10-31T06:09:18;101579.34;;;19.38;43.67
50250;BME280;36133;42.522;27.456;2022-10-31T06:11:43;101584.28;;;19.54;44.52
50250;BME280;36133;42.522;27.456;2022-10-31T06:14:11;101515.53;;;19.19;43.47
50250;BME280;36133;42.522;27.456;2022-10-31T06:16:36;101587.13;;;20.39;43.07
50250;BME280;36133;42.522;27.456;2022-10-31T06:19:02;101572.69;;;20.62;42.61
50250;BME280;36133;42.522;27.456;2022-10-31T06:21:27;101575.50;;;19.89;44.71
50250;BME280;36133;42.522;27.456;2022-10-31T06:23:56;101619.34;;;20.26;43.35
50250;BME280;36133;42.522;27.456;2022-10-31T06:26:22;101731.09;;;22.10;40.83
50250;BME280;36133;42.522;27.456;2022-10-31T06:28:47;101391.59;;;21.32;38.67
50250;BME280;36133;42.522;27.456;2022-10-31T06:31:13;101653.53;;;23.67;37.13
50250;BME280;36133;42.522;27.456;2022-10-31T06:33:41;101643.91;;;23.87;36.40
50250;BME280;36133;42.522;27.456;2022-10-31T06:36:08;101714.22;;;26.02;34.49
50250;BME280;36133;42.522;27.456;2022-10-31T06:38:33;101773.22;;;26.07;33.90
50250;BME280;36133;42.522;27.456;2022-10-31T06:41:08;101656.94;;;24.52;35.22
50250;BME280;36133;42.522;27.456;2022-10-31T06:43:33;101428.84;;;22.54;36.15
50250;BME280;36133;42.522;27.456;2022-10-31T06:46:03;101493.66;;;23.67;34.76
50250;BME280;36133;42.522;27.456;2022-10-31T06:48:29;101632.91;;;24.74;34.45
50250;BME280;36133;42.522;27.456;2022-10-31T06:50:59;101527.28;;;22.80;35.86
50250;BME280;36133;42.522;27.456;2022-10-31T06:53:25;101489.38;;;23.21;34.70
50250;BME280;36133;42.522;27.456;2022-10-31T06:55:50;101349.16;;;22.81;34.62
50250;BME280;36133;42.522;27.456;2022-10-31T06:58:16;101642.63;;;24.55;34.83
50250;BME280;36133;42.522;27.456;2022-10-31T07:00:41;101397.75;;;23.70;33.63
50250;BME280;36133;42.522;27.456;2022-10-31T07:03:11;101623.38;;;26.41;31.98
50250;BME280;36133;42.522;27.456;2022-10-31T07:05:37;101436.22;;;25.47;31.47
50250;BME280;36133;42.522;27.456;2022-10-31T07:08:06;101780.91;;;29.53;28.69
50250;BME280;36133;42.522;27.456;2022-10-31T07:10:34;101671.53;;;29.86;27.28
50250;BME280;36133;42.522;27.456;2022-10-31T07:13:05;101481.66;;;29.89;25.78
50250;BME280;36133;42.522;27.456;2022-10-31T07:15:34;101666.22;;;31.69;24.94
50250;BME280;36133;42.522;27.456;2022-10-31T07:18:01;101679.53;;;31.91;24.40
50250;BME280;36133;42.522;27.456;2022-10-31T07:20:31;101651.13;;;32.80;23.80
50250;BME280;36133;42.522;27.456;2022-10-31T07:22:57;101628.75;;;32.30;24.09
50250;BME280;36133;42.522;27.456;2022-10-31T07:25:23;101559.84;;;34.48;22.25
50250;BME280;36133;42.522;27.456;2022-10-31T07:27:50;101575.91;;;31.33;24.91
50250;BME280;36133;42.522;27.456;2022-10-31T07:30:21;101595.56;;;34.17;21.98
50250;BME280;36133;42.522;27.456;2022-10-31T07:32:48;101547.59;;;35.13;20.37
50250;BME280;36133;42.522;27.456;2022-10-31T07:35:28;101412.06;;;33.71;20.77
50250;BME280;36133;42.522;27.456;2022-10-31T07:37:54;101420.78;;;36.29;18.75
50250;BME280;36133;42.522;27.456;2022-10-31T07:40:20;101727.78;;;37.03;19.76
50250;BME280;36133;42.522;27.456;2022-10-31T07:42:48;101525.22;;;34.79;20.09
50250;BME280;36133;42.522;27.456;2022-10-31T07:45:17;101789.16;;;37.51;19.40
50250;BME280;36133;42.522;27.456;2022-10-31T07:47:56;101667.97;;;35.96;20.10
50250;BME280;36133;42.522;27.456;2022-10-31T07:50:30;101684.66;;;30.33;25.48
50250;BME280;36133;42.522;27.456;2022-10-31T07:53:07;101411.63;;;28.86;25.74
50250;BME280;36133;42.522;27.456;2022-10-31T07:55:37;101804.66;;;33.68;23.47
50250;BME280;36133;42.522;27.456;2022-10-31T07:58:13;101651.88;;;35.59;20.17
50250;BME280;36133;42.522;27.456;2022-10-31T08:00:41;101643.53;;;32.94;22.88
50250;BME280;36133;42.522;27.456;2022-10-31T08:03:15;101558.78;;;28.13;27.13
50250;BME280;36133;42.522;27.456;2022-10-31T08:05:42;101698.03;;;29.05;27.76
50250;BME280;36133;42.522;27.456;2022-10-31T08:08:10;101354.75;;;27.77;27.42
50250;BME280;36133;42.522;27.456;2022-10-31T08:10:41;101546.81;;;29.35;26.71
50250;BME280;36133;42.522;27.456;2022-10-31T08:13:11;101686.09;;;29.44;27.68
50250;BME280;36133;42.522;27.456;2022-10-31T08:15:39;101820.50;;;27.63;31.54
50250;BME280;36133;42.522;27.456;2022-10-31T08:18:13;101590.91;;;25.31;33.44
50250;BME280;36133;42.522;27.456;2022-10-31T08:20:42;101338.78;;;25.09;31.74
50250;BME280;36133;42.522;27.456;2022-10-31T08:23:14;101834.47;;;27.10;33.26
50250;BME280;36133;42.522;27.456;2022-10-31T08:25:42;101278.88;;;24.25;32.94
50250;BME280;36133;42.522;27.456;2022-10-31T08:28:10;101760.28;;;27.48;32.33
50250;BME280;36133;42.522;27.456;2022-10-31T08:30:37;101427.69;;;25.06;32.62
50250;BME280;36133;42.522;27.456;2022-10-31T08:33:15;101450.50;;;24.00;34.70
50250;BME280;36133;42.522;27.456;2022-10-31T08:35:46;101354.84;;;23.57;34.16
50250;BME280;36133;42.522;27.456;2022-10-31T08:38:13;101416.06;;;26.44;30.93
50250;BME280;36133;42.522;27.456;2022-10-31T08:40:39;101379.09;;;28.58;27.69
50250;BME280;36133;42.522;27.456;2022-10-31T08:43:11;101680.97;;;31.89;25.52
50250;BME280;36133;42.522;27.456;2022-10-31T08:45:46;101676.84;;;32.69;24.85
50250;BME280;36133;42.522;27.456;2022-10-31T08:48:14;101668.03;;;32.75;24.77
50250;BME280;36133;42.522;27.456;2022-10-31T08:50:44;101428.59;;;30.88;24.79
50250;BME280;36133;42.522;27.456;2022-10-31T08:53:16;101430.16;;;32.85;22.66
50250;BME280;36133;42.522;27.456;2022-10-31T08:55:43;101831.25;;;35.43;22.50
50250;BME280;36133;42.522;27.456;2022-10-31T08:58:12;101691.94;;;36.41;20.87
50250;BME280;36133;42.522;27.456;2022-10-31T09:00:38;101438.69;;;30.19;26.00
50250;BME280;36133;42.522;27.456;2022-10-31T09:03:06;101822.50;;;34.17;24.49
50250;BME280;36133;42.522;27.456;2022-10-31T09:05:35;101554.88;;;33.17;23.87
50250;BME280;36133;42.522;27.456;2022-10-31T09:08:03;101777.13;;;34.37;23.79
50250;BME280;36133;42.522;27.456;2022-10-31T09:10:30;101836.16;;;35.20;23.79
50250;BME280;36133;42.522;27.456;2022-10-31T09:13:05;101613.34;;;32.69;25.23
50250;BME280;36133;42.522;27.456;2022-10-31T09:15:34;101826.84;;;34.93;23.90
50250;BME280;36133;42.522;27.456;2022-10-31T09:18:10;101694.13;;;34.19;24.34
50250;BME280;36133;42.522;27.456;2022-10-31T09:20:38;101500.94;;;34.14;23.27
50250;BME280;36133;42.522;27.456;2022-10-31T09:23:08;101537.31;;;35.43;22.27
50250;BME280;36133;42.522;27.456;2022-10-31T09:25:34;101597.47;;;35.16;22.98
50250;BME280;36133;42.522;27.456;2022-10-31T09:28:05;101581.41;;;35.90;21.94
50250;BME280;36133;42.522;27.456;2022-10-31T09:30:33;101584.34;;;36.52;21.68
50250;BME280;36133;42.522;27.456;2022-10-31T09:33:01;101526.97;;;33.04;24.79
50250;BME280;36133;42.522;27.456;2022-10-31T09:35:27;101658.91;;;33.95;24.93
50250;BME280;36133;42.522;27.456;2022-10-31T09:38:01;101432.19;;;31.49;26.76
50250;BME280;36133;42.522;27.456;2022-10-31T09:40:39;101347.38;;;30.49;27.24
50250;BME280;36133;42.522;27.456;2022-10-31T09:48:28;101715.34;;;33.35;27.55
50250;BME280;36133;42.522;27.456;2022-10-31T09:51:12;101561.06;;;33.59;26.00
50250;BME280;36133;42.522;27.456;2022-10-31T09:56:14;101330.81;;;32.57;25.98
50250;BME280;36133;42.522;27.456;2022-10-31T09:59:01;101548.94;;;32.52;28.83
50250;BME280;36133;42.522;27.456;2022-10-31T10:01:49;101657.38;;;35.20;26.67
50250;BME280;36133;42.522;27.456;2022-10-31T10:04:34;101811.59;;;31.54;32.34
50250;BME280;36133;42.522;27.456;2022-10-31T10:10:12;101379.47;;;30.79;30.34
50250;BME280;36133;42.522;27.456;2022-10-31T10:24:44;101506.94;;;31.93;31.29
50250;BME280;36133;42.522;27.456;2022-10-31T10:27:25;101785.84;;;33.60;31.62
50250;BME280;36133;42.522;27.456;2022-10-31T10:30:04;101816.19;;;37.02;26.25
50250;BME280;36133;42.522;27.456;2022-10-31T10:32:53;101816.66;;;36.19;28.28
50250;BME280;36133;42.522;27.456;2022-10-31T10:35:33;101461.22;;;31.48;31.15
50250;BME280;36133;42.522;27.456;2022-10-31T10:38:12;101812.22;;;34.34;30.88
50250;BME280;36133;42.522;27.456;2022-10-31T10:40:39;101578.59;;;34.22;28.84
50250;BME280;36133;42.522;27.456;2022-10-31T10:43:32;101808.59;;;37.23;27.45
50250;BME280;36133;42.522;27.456;2022-10-31T10:46:11;101814.66;;;33.10;32.63
50250;BME280;36133;42.522;27.456;2022-10-31T10:49:16;101432.94;;;31.27;32.61
50250;BME280;36133;42.522;27.456;2022-10-31T10:51:46;101386.72;;;29.72;33.88
50250;BME280;36133;42.522;27.456;2022-10-31T10:56:59;101786.19;;;37.06;27.21
50250;BME280;36133;42.522;27.456;2022-10-31T10:59:28;101672.22;;;36.11;27.68
50250;BME280;36133;42.522;27.456;2022-10-31T11:01:56;101666.13;;;35.28;28.50
50250;BME280;36133;42.522;27.456;2022-10-31T11:04:32;101795.00;;;36.36;28.18
50250;BME280;36133;42.522;27.456;2022-10-31T11:07:00;101487.44;;;34.33;28.67
50250;BME280;36133;42.522;27.456;2022-10-31T11:09:26;101750.31;;;35.71;28.72
50250;BME280;36133;42.522;27.456;2022-10-31T11:11:53;101807.88;;;33.97;31.77
50250;BME280;36133;42.522;27.456;2022-10-31T11:14:19;101638.00;;;35.36;28.49
50250;BME280;36133;42.522;27.456;2022-10-31T11:16:48;101669.09;;;37.34;26.07
50250;BME280;36133;42.522;27.456;2022-10-31T11:19:24;101559.94;;;36.15;26.60
50250;BME280;36133;42.522;27.456;2022-10-31T11:25:27;101797.03;;;37.16;26.71
50250;BME280;36133;42.522;27.456;2022-10-31T11:28:05;101765.16;;;35.71;28.65
50250;BME280;36133;42.522;27.456;2022-10-31T11:30:42;101395.31;;;32.02;30.44
50250;BME280;36133;42.522;27.456;2022-10-31T11:33:17;101423.94;;;31.30;31.97
50250;BME280;36133;42.522;27.456;2022-10-31T11:35:55;101534.06;;;30.68;34.40
50250;BME280;36133;42.522;27.456;2022-10-31T11:38:39;101619.34;;;32.76;32.44
50250;BME280;36133;42.522;27.456;2022-10-31T11:41:28;101365.13;;;32.49;30.36
50250;BME280;36133;42.522;27.456;2022-10-31T11:44:01;101394.47;;;33.22;29.83
50250;BME280;36133;42.522;27.456;2022-10-31T11:49:15;101585.13;;;31.47;33.04
50250;BME280;36133;42.522;27.456;2022-10-31T11:51:51;101324.75;;;32.94;29.54
50250;BME280;36133;42.522;27.456;2022-10-31T11:54:25;101642.44;;;32.82;32.08
50250;BME280;36133;42.522;27.456;2022-10-31T11:56:55;101788.72;;;33.68;32.21
50250;BME280;36133;42.522;27.456;2022-10-31T11:59:31;101510.00;;;32.05;32.09
50250;BME280;36133;42.522;27.456;2022-10-31T12:01:58;101624.59;;;32.28;32.93
50250;BME280;36133;42.522;27.456;2022-10-31T12:04:35;101651.91;;;33.84;30.88
50250;BME280;36133;42.522;27.456;2022-10-31T12:07:02;101732.50;;;33.65;31.15
50250;BME280;36133;42.522;27.456;2022-10-31T12:09:30;101657.47;;;33.75;30.19
50250;BME280;36133;42.522;27.456;2022-10-31T12:12:22;101517.78;;;31.95;31.48
50250;BME280;36133;42.522;27.456;2022-10-31T12:15:30;101775.41;;;34.58;30.34
50250;BME280;36133;42.522;27.456;2022-10-31T12:18:24;101775.78;;;35.40;29.03
50250;BME280;36133;42.522;27.456;2022-10-31T12:21:37;101775.38;;;35.85;28.58
50250;BME280;36133;42.522;27.456;2022-10-31T12:24:18;101678.75;;;34.56;28.33
50250;BME280;36133;42.522;27.456;2022-10-31T12:27:16;101776.47;;;33.64;29.74
50250;BME280;36133;42.522;27.456;2022-10-31T12:30:17;101777.25;;;33.56;29.55
50250;BME280;36133;42.522;27.456;2022-10-31T12:33:01;101651.63;;;34.34;27.63
50250;BME280;36133;42.522;27.456;2022-10-31T12:41:20;101346.25;;;29.80;31.70
50250;BME280;36133;42.522;27.456;2022-10-31T12:46:40;101775.13;;;33.62;29.46
50250;BME280;36133;42.522;27.456;2022-10-31T12:57:46;101522.41;;;30.66;31.60
50250;BME280;36133;42.522;27.456;2022-10-31T13:00:15;101345.00;;;30.10;29.92
50250;BME280;36133;42.522;27.456;2022-10-31T13:08:26;101784.03;;;33.41;28.93
50250;BME280;36133;42.522;27.456;2022-10-31T13:15:27;101783.22;;;31.85;31.53
50250;BME280;36133;42.522;27.456;2022-10-31T13:17:42;101647.78;;;31.22;30.90
50250;BME280;36133;42.522;27.456;2022-10-31T13:23:43;101715.56;;;32.75;29.87
50250;BME280;36133;42.522;27.456;2022-10-31T13:26:38;101318.97;;;29.82;30.47
50250;BME280;36133;42.522;27.456;2022-10-31T13:29:18;101622.84;;;32.18;29.89
50250;BME280;36133;42.522;27.456;2022-10-31T13:31:45;101360.84;;;29.90;30.53
50250;BME280;36133;42.522;27.456;2022-10-31T13:34:32;101690.44;;;31.74;30.59
50250;BME280;36133;42.522;27.456;2022-10-31T13:37:29;101787.63;;;31.34;31.89
50250;BME280;36133;42.522;27.456;2022-10-31T13:40:09;101788.69;;;32.82;29.73
50250;BME280;36133;42.522;27.456;2022-10-31T13:45:30;101426.13;;;27.45;34.42
50250;BME280;36133;42.522;27.456;2022-10-31T13:51:07;101282.06;;;28.43;31.47
50250;BME280;36133;42.522;27.456;2022-10-31T13:54:06;101785.88;;;31.19;32.07
50250;BME280;36133;42.522;27.456;2022-10-31T13:56:59;101636.13;;;30.16;32.23
50250;BME280;36133;42.522;27.456;2022-10-31T13:59:31;101387.69;;;27.88;33.10
50250;BME280;36133;42.522;27.456;2022-10-31T14:02:14;101622.22;;;29.63;32.81
50250;BME280;36133;42.522;27.456;2022-10-31T14:04:54;101725.50;;;31.29;30.89
50250;BME280;36133;42.522;27.456;2022-10-31T14:07:25;101359.72;;;27.80;32.61
50250;BME280;36133;42.522;27.456;2022-10-31T14:12:40;101243.19;;;24.13;37.26
50250;BME280;36133;42.522;27.456;2022-10-31T14:15:20;101348.03;;;24.18;38.69
50250;BME280;36133;42.522;27.456;2022-10-31T14:17:48;101740.94;;;25.86;40.45
50250;BME280;36133;42.522;27.456;2022-10-31T14:22:44;101500.50;;;23.09;43.06
50250;BME280;36133;42.522;27.456;2022-10-31T14:25:30;101809.16;;;24.82;43.62
50250;BME280;36133;42.522;27.456;2022-10-31T14:27:57;101729.69;;;24.07;44.50
50250;BME280;36133;42.522;27.456;2022-10-31T14:30:28;101652.69;;;23.50;44.61
50250;BME280;36133;42.522;27.456;2022-10-31T14:32:58;101359.75;;;21.60;45.28
50250;BME280;36133;42.522;27.456;2022-10-31T14:35:42;101645.97;;;22.96;46.42
50250;BME280;36133;42.522;27.456;2022-10-31T14:38:29;101594.53;;;22.56;47.18
50250;BME280;36133;42.522;27.456;2022-10-31T14:47:34;101691.03;;;23.06;46.60
50250;BME280;36133;42.522;27.456;2022-10-31T14:52:20;101418.25;;;20.97;47.77
50250;BME280;36133;42.522;27.456;2022-10-31T14:54:52;101580.94;;;21.86;47.68
50250;BME280;36133;42.522;27.456;2022-10-31T14:57:47;101612.25;;;22.20;47.04
50250;BME280;36133;42.522;27.456;2022-10-31T15:00:19;101520.53;;;21.51;47.02
50250;BME280;36133;42.522;27.456;2022-10-31T15:05:55;101289.31;;;19.85;47.83
50250;BME280;36133;42.522;27.456;2022-10-31T15:08:50;101606.69;;;21.03;49.52
50250;BME280;36133;42.522;27.456;2022-10-31T15:11:26;101827.63;;;22.20;49.90